Time;durP1;ratioP1;P1;durP2;ratioP2;P2;SDS_P1;SDS_P2;PMS_P1;PMS_P2;Temp;Humidity;BMP_temperature;BMP_pressure;BME280_temperature;BME280_humidity;BME280_pressure;Samples;Min_cycle;Max_cycle;Signal;HPM_P1;HPM_P2
2022/07/20 15:50:33;;;;;;;10.18;9.18;;;35.30;26.30;;;33.48;28.66;95542.34;5087667;27;20567;-48
2022/07/20 15:52:58;;;;;;;9.52;8.60;;;34.70;27.20;;;33.32;28.55;95543.72;5029373;23;20057;-52
2022/07/20 15:55:24;;;;;;;10.02;8.73;;;34.90;27.30;;;33.12;29.11;95557.34;4945039;28;21490;-52
2022/07/20 15:57:50;;;;;;;10.10;9.10;;;35.00;27.30;;;32.88;29.65;95550.13;4970919;28;20040;-51
2022/07/20 16:00:22;;;;;;;14.55;9.15;;;35.20;27.20;;;32.61;29.66;95548.00;4971054;28;20457;-51
2022/07/20 16:02:48;;;;;;;11.27;8.60;;;35.30;27.20;;;32.47;30.07;95531.63;4965904;28;20025;-52
2022/07/20 16:05:15;;;;;;;11.07;8.63;;;35.30;27.20;;;32.39;30.43;95533.63;5005308;28;20029;-50
2022/07/20 16:07:42;;;;;;;14.52;10.65;;;35.20;27.70;;;32.21;31.15;95546.75;5006988;28;20075;-54
2022/07/20 16:10:12;;;;;;;22.17;10.40;;;35.20;27.40;;;32.09;31.70;95550.81;4973073;28;20037;-49
2022/07/20 16:12:44;;;;;;;17.67;10.15;;;35.10;27.60;;;31.88;32.02;95537.16;5006140;28;20025;-50
2022/07/20 16:15:11;;;;;;;;;;;35.10;27.90;;;31.61;35.55;95532.19;4989523;28;20053;-49
2022/07/20 16:17:40;;;;;;;26.20;12.55;;;34.90;27.50;;;31.42;41.43;95525.22;4886159;28;60939;-49
2022/07/20 16:20:10;;;;;;;29.55;12.98;;;34.80;29.60;;;30.82;45.07;95523.47;4915517;28;22742;-48
2022/07/20 16:22:39;;;;;;;30.27;13.88;;;34.30;32.20;;;30.39;51.31;95531.78;4984913;28;20399;-53
2022/07/20 16:25:09;;;;;;;34.95;25.85;;;33.70;35.00;;;29.81;50.29;95541.16;4985446;28;20053;-53
2022/07/20 16:27:35;;;;;;;23.17;13.88;;;33.00;37.20;;;29.12;51.69;95548.38;4985171;28;20033;-55
2022/07/20 16:30:06;;;;;;;21.13;14.02;;;32.30;37.90;;;28.57;53.11;95554.69;4985643;28;20068;-47
2022/07/20 16:32:33;;;;;;;20.48;14.73;;;31.80;39.60;;;28.10;55.26;95572.69;4968036;28;20025;-51
2022/07/20 16:35:02;;;;;;;19.70;14.43;;;31.20;40.60;;;27.73;59.98;95588.34;5004476;28;20375;-49
2022/07/20 16:37:30;;;;;;;19.65;14.13;;;30.80;42.30;;;27.16;58.27;95621.28;4988364;28;20033;-48
2022/07/20 16:39:58;;;;;;;17.27;11.93;;;30.40;43.30;;;26.29;57.94;95672.97;5004083;28;20056;-52
2022/07/20 16:42:24;;;;;;;16.27;11.35;;;30.00;43.70;;;25.59;56.70;95676.69;4966953;28;20457;-49
2022/07/20 16:44:50;;;;;;;16.70;10.60;;;29.60;44.00;;;25.28;56.26;95707.59;4975951;28;20044;-47
2022/07/20 16:47:16;;;;;;;17.80;9.95;;;29.20;44.10;;;25.19;58.17;95720.63;5001535;28;20452;-53
2022/07/20 16:49:41;;;;;;;18.48;10.43;;;28.90;44.70;;;24.45;62.26;95779.13;5004219;28;20591;-49
2022/07/20 16:52:07;;;;;;;20.67;12.30;;;28.50;46.10;;;22.80;70.48;95807.91;4985431;28;20045;-48
2022/07/20 16:54:33;;;;;;;11.82;5.15;;;27.80;49.70;;;21.49;67.95;95813.69;4986934;28;20439;-50
2022/07/20 16:56:59;;;;;;;22.35;10.10;;;27.00;51.70;;;21.06;73.89;95757.00;5002865;28;20025;-52
2022/07/20 16:59:25;;;;;;;9.75;4.97;;;26.10;54.00;;;20.38;71.90;95714.47;4968657;28;20095;-52
2022/07/20 17:01:52;;;;;;;6.72;3.75;;;25.40;54.50;;;19.61;75.05;95699.97;4975403;28;20028;-55
2022/07/20 17:04:18;;;;;;;11.77;4.35;;;24.70;55.30;;;19.01;75.83;95655.66;4989674;28;20033;-52
2022/07/20 17:06:46;;;;;;;9.18;3.83;;;24.10;56.00;;;18.52;77.90;95616.31;4967023;28;20030;-48
2022/07/20 17:09:17;;;;;;;8.75;4.22;;;23.40;56.60;;;18.57;78.68;95640.47;4957436;28;20072;-50
2022/07/20 17:11:43;;;;;;;6.03;3.25;;;22.90;57.50;;;18.38;77.95;95646.91;4973509;28;20392;-50
2022/07/20 17:14:09;;;;;;;3.90;2.92;;;22.50;57.90;;;18.33;78.44;95644.34;4971712;28;20026;-53
2022/07/20 17:16:38;;;;;;;3.90;2.60;;;22.20;58.50;;;18.34;77.58;95653.25;4982379;28;20524;-47
2022/07/20 17:21:50;;;;;;;5.68;3.03;;;21.80;59.70;;;18.29;83.14;95658.78;4971819;28;20052;-49
2022/07/20 17:24:16;;;;;;;6.03;4.22;;;21.70;60.30;;;18.21;84.47;95663.03;4979248;28;20048;-49
2022/07/20 17:26:44;;;;;;;6.60;5.15;;;21.60;60.90;;;18.06;86.93;95672.31;4981842;28;20041;-47
2022/07/20 17:29:12;;;;;;;8.60;5.13;;;21.50;61.40;;;18.02;87.79;95664.06;4982231;28;20041;-48
2022/07/20 17:31:42;;;;;;;9.82;6.45;;;21.40;62.00;;;17.99;88.89;95653.13;4979992;28;20091;-49
2022/07/20 17:34:08;;;;;;;13.18;7.78;;;21.40;62.40;;;17.99;89.34;95663.91;4983096;28;20479;-48
2022/07/20 17:36:34;;;;;;;11.93;7.50;;;21.40;63.00;;;18.00;89.89;95687.03;4972292;28;20075;-49
2022/07/20 17:39:02;;;;;;;14.00;6.63;;;21.40;63.50;;;18.02;91.34;95725.25;4990997;28;20030;-51
2022/07/20 17:41:28;;;;;;;8.60;6.05;;;21.40;63.80;;;17.99;90.42;95712.41;4958445;28;20029;-50
2022/07/20 17:43:54;;;;;;;10.32;6.55;;;21.40;64.30;;;18.07;90.11;95703.56;4988526;28;20025;-52
2022/07/20 17:46:20;;;;;;;11.88;6.20;;;21.40;64.60;;;18.08;88.60;95693.56;4976860;28;20391;-50
2022/07/20 17:48:46;;;;;;;10.65;6.45;;;21.40;64.70;;;18.05;89.07;95684.22;4988297;28;20026;-46
2022/07/20 17:51:12;;;;;;;12.82;7.32;;;21.40;64.90;;;18.10;89.20;95707.53;4985238;28;20029;-49
2022/07/20 17:53:38;;;;;;;10.52;7.03;;;21.50;65.10;;;18.14;89.85;95730.84;4943967;28;21267;-47
2022/07/20 17:56:04;;;;;;;11.98;7.45;;;21.50;65.20;;;18.25;90.65;95726.81;4982524;28;20026;-51
2022/07/20 17:58:30;;;;;;;12.90;6.82;;;21.50;65.50;;;18.25;90.34;95721.41;4973691;28;20365;-50
2022/07/20 18:00:56;;;;;;;13.95;7.63;;;21.50;65.60;;;18.29;90.71;95735.06;4989677;28;20041;-49
2022/07/20 18:03:21;;;;;;;10.82;7.60;;;21.60;65.60;;;18.29;89.61;95731.56;4970228;28;20033;-51
2022/07/20 18:05:47;;;;;;;10.90;7.55;;;21.60;65.60;;;18.33;89.47;95721.75;4973555;28;20140;-48
2022/07/20 18:08:31;;;;;;;10.80;7.70;;;21.70;65.80;;;18.30;89.57;95706.19;4976594;28;20029;-51
2022/07/20 18:11:00;;;;;;;12.07;8.00;;;21.70;65.80;;;18.39;89.66;95713.22;4957007;28;20033;-48
2022/07/20 18:13:28;;;;;;;11.70;7.70;;;21.80;66.00;;;18.42;89.80;95731.47;4970902;28;20030;-48
2022/07/20 18:15:55;;;;;;;10.00;8.07;;;21.80;65.80;;;18.48;90.19;95737.53;4972970;28;20014;-46
2022/07/20 18:18:21;;;;;;;14.60;8.95;;;21.90;65.90;;;18.50;89.89;95743.41;4973544;28;20033;-50
2022/07/20 18:20:49;;;;;;;15.38;10.93;;;21.90;66.00;;;18.54;90.34;95748.97;4991150;28;20034;-48
2022/07/20 18:23:18;;;;;;;18.13;10.95;;;21.90;66.30;;;18.54;90.88;95738.19;4973526;28;20113;-46
2022/07/20 18:25:45;;;;;;;12.00;8.93;;;22.00;66.30;;;18.41;89.72;95721.81;4985164;28;20554;-50
2022/07/20 18:28:16;;;;;;;12.57;8.52;;;22.00;66.50;;;18.46;90.48;95727.06;4958536;28;20121;-48
2022/07/20 18:30:45;;;;;;;13.63;8.38;;;22.00;66.80;;;18.56;91.00;95733.28;4977289;28;20136;-47
2022/07/20 18:33:14;;;;;;;11.07;9.27;;;22.00;66.70;;;18.61;90.78;95747.41;4974431;28;20432;-50
2022/07/20 18:35:45;;;;;;;13.25;8.80;;;22.00;66.70;;;18.65;90.38;95755.72;4969851;28;20697;-47
2022/07/20 18:38:13;;;;;;;14.77;9.48;;;22.00;67.00;;;18.65;90.36;95777.28;4970043;28;20018;-53
2022/07/20 18:40:41;;;;;;;14.82;9.35;;;22.00;67.00;;;18.67;91.05;95824.41;4971366;28;20458;-47
2022/07/20 18:43:08;;;;;;;12.25;8.93;;;22.00;67.20;;;18.68;90.86;95846.81;4953468;28;20026;-46
2022/07/20 18:48:32;;;;;;;13.05;9.75;;;22.10;67.40;;;18.72;92.00;95880.97;4963245;28;20091;-46
2022/07/20 18:51:00;;;;;;;13.93;10.15;;;22.10;67.90;;;18.75;92.31;95911.94;4961007;28;20485;-45
2022/07/20 18:53:29;;;;;;;13.65;9.88;;;22.10;67.80;;;18.71;92.50;95921.75;4969813;28;20057;-47
2022/07/20 18:55:59;;;;;;;14.65;9.98;;;22.10;68.30;;;18.75;91.58;95911.16;4953050;28;20026;-46
2022/07/20 18:58:25;;;;;;;14.25;9.57;;;22.10;68.30;;;18.79;90.85;95921.00;4954392;28;20109;-48
2022/07/20 19:00:55;;;;;;;14.65;9.63;;;22.10;68.30;;;18.86;91.55;95939.47;4965307;28;20599;-48
2022/07/20 19:03:22;;;;;;;12.20;10.45;;;22.10;68.60;;;18.91;91.80;95947.44;4944483;28;26317;-45
2022/07/20 19:05:51;;;;;;;14.55;10.95;;;22.20;68.70;;;18.95;91.41;95932.22;4953011;28;20648;-52
2022/07/20 19:08:19;;;;;;;16.35;10.90;;;22.20;68.80;;;19.00;90.98;95926.69;4970642;28;20026;-45
2022/07/20 19:10:48;;;;;;;15.40;11.30;;;22.20;68.80;;;19.01;92.32;95935.59;4969554;28;20509;-49
2022/07/20 19:13:18;;;;;;;16.15;11.85;;;22.30;68.80;;;19.01;91.42;95951.78;4970463;28;20026;-46
2022/07/20 19:15:46;;;;;;;16.25;11.65;;;22.20;68.80;;;19.00;91.58;95939.41;4969418;28;20049;-49
2022/07/20 19:18:14;;;;;;;19.15;12.73;;;22.30;68.90;;;18.99;91.89;95945.88;4972370;28;20030;-46
2022/07/20 19:20:46;;;;;;;19.83;13.38;;;22.30;68.80;;;18.98;92.14;95938.91;4972739;28;20122;-46
2022/07/20 19:23:16;;;;;;;17.20;13.18;;;22.30;68.80;;;18.94;93.86;95912.53;4981209;28;20060;-48
2022/07/20 19:25:43;;;;;;;20.52;13.45;;;22.40;69.00;;;18.91;93.82;95899.66;4985997;28;20030;-46
2022/07/20 19:28:12;;;;;;;21.00;14.07;;;22.30;69.00;;;18.84;94.56;95861.53;4985021;28;20076;-55
2022/07/20 19:30:41;;;;;;;20.02;13.13;;;22.30;69.10;;;18.73;94.52;95858.28;4968992;28;20506;-51
2022/07/20 19:33:13;;;;;;;19.52;13.35;;;22.30;69.40;;;18.82;94.69;95857.53;4980349;28;20030;-50
2022/07/20 19:35:43;;;;;;;19.97;14.10;;;22.20;69.50;;;18.78;94.11;95856.56;4972215;28;20034;-50
2022/07/20 19:38:09;;;;;;;16.48;12.48;;;22.30;69.50;;;18.81;93.86;95853.25;4971622;28;20276;-51
2022/07/20 19:40:37;;;;;;;15.02;12.02;;;22.20;69.60;;;18.76;92.82;95829.09;4956444;28;20072;-48
2022/07/20 19:43:04;;;;;;;16.27;11.52;;;22.20;69.60;;;18.77;91.59;95811.78;4971694;28;20026;-48
2022/07/20 19:45:30;;;;;;;15.95;11.10;;;22.20;69.80;;;18.84;91.87;95828.34;4951748;28;20021;-46
2022/07/20 19:48:04;;;;;;;15.07;11.80;;;22.20;69.80;;;18.92;91.92;95851.84;4989066;28;20380;-52
2022/07/20 19:50:31;;;;;;;14.40;12.07;;;22.20;70.00;;;18.91;91.19;95856.47;4983040;28;20049;-46
2022/07/20 19:53:00;;;;;;;18.13;13.35;;;22.20;69.90;;;18.93;92.37;95869.66;4986783;28;20041;-47
2022/07/20 19:55:27;;;;;;;16.35;12.82;;;22.30;69.90;;;18.97;92.57;95862.53;4972174;28;20060;-46
2022/07/20 19:57:56;;;;;;;18.00;13.25;;;22.30;70.00;;;18.92;93.04;95862.66;4980710;28;20037;-46
2022/07/20 20:00:22;;;;;;;22.13;14.82;;;22.30;70.10;;;18.98;92.85;95874.13;4972231;28;20148;-46
2022/07/20 20:02:48;;;;;;;19.92;14.15;;;22.30;70.00;;;18.95;92.89;95884.41;4952293;28;20038;-48
2022/07/20 20:05:14;;;;;;;21.90;14.68;;;22.30;70.10;;;18.94;92.54;95879.34;4988249;28;20112;-48
2022/07/20 20:07:43;;;;;;;20.35;13.82;;;22.30;70.00;;;18.90;93.08;95864.88;4954546;28;20377;-49
2022/07/20 20:10:12;;;;;;;19.98;14.13;;;22.30;70.30;;;18.86;94.06;95843.09;4987527;28;20358;-48
2022/07/20 20:12:38;;;;;;;23.67;15.27;;;22.30;70.30;;;18.88;94.02;95851.69;4957184;28;20026;-50
2022/07/20 20:15:08;;;;;;;22.10;15.80;;;22.30;70.20;;;18.86;93.87;95848.50;4985992;28;20497;-53
2022/07/20 20:17:34;;;;;;;20.70;15.00;;;22.30;70.30;;;18.82;93.99;95863.72;4970884;28;20018;-55
2022/07/20 20:20:07;;;;;;;24.45;14.90;;;22.30;70.30;;;18.80;94.11;95871.31;4955519;28;33276;-51
2022/07/20 20:22:33;;;;;;;21.33;15.50;;;22.30;70.50;;;18.78;93.92;95862.75;4959113;28;20499;-50
2022/07/20 20:25:01;;;;;;;19.23;14.82;;;22.30;70.40;;;18.82;93.87;95893.41;4967136;28;20030;-49
2022/07/20 20:27:30;;;;;;;25.42;16.13;;;22.20;70.40;;;18.78;95.80;95905.16;4989183;28;20026;-50
2022/07/20 20:29:59;;;;;;;22.02;16.38;;;22.20;70.80;;;18.80;95.32;95903.72;4979738;28;20404;-49
2022/07/20 20:32:33;;;;;;;26.85;17.17;;;22.30;71.10;;;18.87;94.80;95914.09;4969727;28;20029;-51
2022/07/20 20:35:03;;;;;;;21.15;16.38;;;22.20;71.20;;;18.81;95.38;95920.72;4969600;28;20026;-46
2022/07/20 20:37:32;;;;;;;20.88;16.80;;;22.30;71.20;;;18.86;95.60;95918.66;4973472;28;20107;-45
2022/07/20 20:40:02;;;;;;;24.63;16.95;;;22.30;71.30;;;18.90;95.42;95919.66;4974637;28;20037;-47
2022/07/20 20:42:31;;;;;;;24.15;17.35;;;22.20;71.30;;;18.92;95.62;95913.94;4957969;28;20022;-51
